createdAt,value
2023-04-18T00:00:58.400Z,100.00
2023-04-18T00:03:30.409Z,100.00
2023-04-18T00:06:01.050Z,100.00
2023-04-18T00:08:31.452Z,100.00
2023-04-18T00:11:03.398Z,100.00
2023-04-18T00:13:33.312Z,100.00
2023-04-18T00:16:02.780Z,100.00
2023-04-18T00:18:32.907Z,100.00
2023-04-18T00:21:04.629Z,100.00
2023-04-18T00:23:35.109Z,100.00
2023-04-18T00:26:05.562Z,100.00
2023-04-18T00:28:36.496Z,100.00
2023-04-18T00:31:06.265Z,100.00
2023-04-18T00:33:37.518Z,100.00
2023-04-18T00:36:10.508Z,100.00
2023-04-18T00:38:40.256Z,100.00
2023-04-18T00:41:10.384Z,100.00
2023-04-18T00:43:40.192Z,100.00
2023-04-18T00:46:09.555Z,100.00
2023-04-18T00:48:53.567Z,100.00
2023-04-18T00:51:25.872Z,100.00
2023-04-18T00:53:58.748Z,100.00
2023-04-18T00:56:29.525Z,100.00
2023-04-18T00:59:00.359Z,100.00
2023-04-18T01:01:32.595Z,100.00
2023-04-18T01:04:02.255Z,100.00
2023-04-18T01:06:34.367Z,100.00
2023-04-18T01:09:06.191Z,100.00
2023-04-18T01:11:36.533Z,100.00
2023-04-18T01:14:08.815Z,100.00
2023-04-18T01:16:39.062Z,100.00
2023-04-18T01:19:13.229Z,100.00
2023-04-18T01:21:46.132Z,100.00
2023-04-18T01:24:17.491Z,100.00
2023-04-18T01:26:49.348Z,100.00
2023-04-18T01:29:19.994Z,100.00
2023-04-18T01:31:52.332Z,100.00
2023-04-18T01:34:21.182Z,100.00
2023-04-18T01:36:51.487Z,100.00
2023-04-18T01:39:21.373Z,100.00
2023-04-18T01:41:50.360Z,100.00
2023-04-18T01:44:18.877Z,100.00
2023-04-18T01:46:48.573Z,100.00
2023-04-18T01:49:18.089Z,100.00
2023-04-18T01:51:47.677Z,100.00
2023-04-18T01:54:17.182Z,100.00
2023-04-18T01:56:47.607Z,100.00
2023-04-18T01:59:16.840Z,100.00
2023-04-18T02:01:46.392Z,100.00
2023-04-18T02:04:16.286Z,100.00
2023-04-18T02:06:48.148Z,100.00
2023-04-18T02:09:27.730Z,100.00
2023-04-18T02:11:59.868Z,100.00
2023-04-18T02:14:34.490Z,100.00
2023-04-18T02:17:03.631Z,100.00
2023-04-18T02:19:33.984Z,100.00
2023-04-18T02:22:02.499Z,100.00
2023-04-18T02:24:32.862Z,100.00
2023-04-18T02:27:03.817Z,100.00
2023-04-18T02:29:33.455Z,100.00
2023-04-18T02:32:02.371Z,100.00
2023-04-18T02:34:30.584Z,100.00
2023-04-18T02:36:59.381Z,100.00
2023-04-18T02:39:27.507Z,100.00
2023-04-18T02:41:56.114Z,100.00
2023-04-18T02:44:30.053Z,100.00
2023-04-18T02:46:58.777Z,100.00
2023-04-18T02:49:28.954Z,100.00
2023-04-18T02:51:58.798Z,100.00
2023-04-18T02:54:27.438Z,100.00
2023-04-18T02:57:10.025Z,100.00
2023-04-18T02:59:45.679Z,100.00
2023-04-18T03:02:14.051Z,100.00
2023-04-18T03:04:50.969Z,100.00
2023-04-18T03:07:19.719Z,100.00
2023-04-18T03:09:50.176Z,100.00
2023-04-18T03:12:24.032Z,100.00
2023-04-18T03:14:54.647Z,100.00
2023-04-18T03:17:22.999Z,100.00
2023-04-18T03:19:51.783Z,100.00
2023-04-18T03:22:22.626Z,100.00
2023-04-18T03:24:56.704Z,100.00
2023-04-18T03:27:40.246Z,100.00
2023-04-18T03:30:11.508Z,100.00
2023-04-18T03:32:42.990Z,100.00
2023-04-18T03:35:12.114Z,100.00
2023-04-18T03:37:40.534Z,100.00
2023-04-18T03:40:11.219Z,100.00
2023-04-18T03:42:39.391Z,100.00
2023-04-18T03:45:08.425Z,100.00
2023-04-18T03:47:40.050Z,100.00
2023-04-18T03:50:09.209Z,100.00
2023-04-18T03:52:37.505Z,100.00
2023-04-18T03:55:07.455Z,100.00
2023-04-18T03:57:35.873Z,100.00
2023-04-18T04:00:08.820Z,100.00
2023-04-18T04:02:46.138Z,100.00
2023-04-18T04:05:21.827Z,100.00
2023-04-18T04:07:51.734Z,100.00
2023-04-18T04:10:20.240Z,100.00
2023-04-18T04:12:50.092Z,100.00
2023-04-18T04:15:22.226Z,100.00
2023-04-18T04:18:13.162Z,100.00
2023-04-18T04:20:45.564Z,100.00
2023-04-18T04:23:18.689Z,100.00
2023-04-18T04:25:49.724Z,100.00
2023-04-18T04:28:46.735Z,100.00
2023-04-18T04:31:22.330Z,100.00
2023-04-18T04:33:52.872Z,100.00
2023-04-18T04:36:24.862Z,100.00
2023-04-18T04:38:54.728Z,100.00
2023-04-18T04:41:32.529Z,100.00
2023-04-18T04:44:02.044Z,100.00
2023-04-18T04:46:34.650Z,100.00
2023-04-18T04:49:09.571Z,100.00
2023-04-18T04:51:38.208Z,100.00
2023-04-18T04:54:09.451Z,100.00
2023-04-18T04:56:40.312Z,100.00
2023-04-18T04:59:09.190Z,100.00
2023-04-18T05:01:41.722Z,100.00
2023-04-18T05:04:13.531Z,100.00
2023-04-18T05:06:42.435Z,100.00
2023-04-18T05:09:10.865Z,100.00
2023-04-18T05:11:39.193Z,100.00
2023-04-18T05:14:07.175Z,100.00
2023-04-18T05:16:36.113Z,100.00
2023-04-18T05:19:04.690Z,100.00
2023-04-18T05:21:34.111Z,100.00
2023-04-18T05:24:02.401Z,100.00
2023-04-18T05:26:30.636Z,100.00
2023-04-18T05:28:59.021Z,100.00
2023-04-18T05:31:27.741Z,100.00
2023-04-18T05:33:56.113Z,100.00
2023-04-18T05:36:24.687Z,100.00
2023-04-18T05:38:54.249Z,100.00
2023-04-18T05:41:23.216Z,100.00
2023-04-18T05:44:04.321Z,100.00
2023-04-18T05:46:34.188Z,100.00
2023-04-18T05:49:03.924Z,100.00
2023-04-18T05:51:32.512Z,100.00
2023-04-18T05:54:03.397Z,100.00
2023-04-18T05:56:33.220Z,100.00
2023-04-18T05:59:09.489Z,100.00
2023-04-18T06:01:38.544Z,100.00
2023-04-18T06:04:08.837Z,100.00
2023-04-18T06:06:37.479Z,100.00
2023-04-18T06:09:07.199Z,100.00
2023-04-18T06:11:38.365Z,100.00
2023-04-18T06:14:08.444Z,100.00
2023-04-18T06:16:37.539Z,100.00
2023-04-18T06:19:06.182Z,100.00
2023-04-18T06:21:36.918Z,100.00
2023-04-18T06:24:08.056Z,100.00
2023-04-18T06:26:38.078Z,100.00
2023-04-18T06:29:06.516Z,100.00
2023-04-18T06:31:38.464Z,100.00
2023-04-18T06:34:07.919Z,100.00
2023-04-18T06:36:36.340Z,100.00
2023-04-18T06:39:05.017Z,100.00
2023-04-18T06:41:37.787Z,100.00
2023-04-18T06:44:06.569Z,100.00
2023-04-18T06:46:35.901Z,100.00
2023-04-18T06:49:04.163Z,100.00
2023-04-18T06:51:34.717Z,100.00
2023-04-18T06:54:03.450Z,100.00
2023-04-18T06:56:32.642Z,100.00
2023-04-18T06:59:04.212Z,100.00
2023-04-18T07:01:33.474Z,100.00
2023-04-18T07:04:02.682Z,100.00
2023-04-18T07:06:31.986Z,100.00
2023-04-18T07:09:02.334Z,100.00
2023-04-18T07:11:30.901Z,100.00
2023-04-18T07:13:59.391Z,100.00
2023-04-18T07:16:29.272Z,100.00
2023-04-18T07:18:58.414Z,100.00
2023-04-18T07:21:28.821Z,100.00
2023-04-18T07:23:58.187Z,100.00
2023-04-18T07:26:28.247Z,100.00
2023-04-18T07:28:57.369Z,100.00
2023-04-18T07:31:26.153Z,100.00
2023-04-18T07:33:57.170Z,100.00
2023-04-18T07:36:29.555Z,100.00
2023-04-18T07:38:58.468Z,100.00
2023-04-18T07:41:28.089Z,100.00
2023-04-18T07:43:57.513Z,100.00
2023-04-18T07:46:27.615Z,100.00
2023-04-18T07:48:58.254Z,100.00
2023-04-18T07:51:31.653Z,100.00
2023-04-18T07:54:00.997Z,100.00
2023-04-18T07:56:29.742Z,100.00
2023-04-18T07:58:58.756Z,100.00
2023-04-18T08:01:27.717Z,100.00
2023-04-18T08:04:02.232Z,100.00
2023-04-18T08:06:31.518Z,100.00
2023-04-18T08:09:05.210Z,100.00
2023-04-18T08:11:34.032Z,100.00
2023-04-18T08:14:05.208Z,100.00
2023-04-18T08:16:34.611Z,100.00
2023-04-18T08:19:04.865Z,100.00
2023-04-18T08:21:33.649Z,100.00
2023-04-18T08:24:01.907Z,100.00
2023-04-18T08:26:33.031Z,100.00
2023-04-18T08:29:01.762Z,100.00
2023-04-18T08:31:32.130Z,100.00
2023-04-18T08:34:13.907Z,100.00
2023-04-18T08:36:43.189Z,100.00
2023-04-18T08:39:12.154Z,100.00
2023-04-18T08:41:44.014Z,100.00
2023-04-18T08:44:13.509Z,100.00
2023-04-18T08:46:43.081Z,100.00
2023-04-18T08:49:13.819Z,100.00
2023-04-18T08:51:43.784Z,100.00
2023-04-18T08:54:13.596Z,100.00
2023-04-18T08:56:42.415Z,100.00
2023-04-18T08:59:13.042Z,100.00
2023-04-18T09:01:51.716Z,100.00
2023-04-18T09:04:50.359Z,100.00
2023-04-18T09:07:20.174Z,100.00
2023-04-18T09:09:51.020Z,100.00
2023-04-18T09:12:23.019Z,97.84
2023-04-18T09:14:54.524Z,93.92
2023-04-18T09:17:33.220Z,90.74
2023-04-18T09:20:06.857Z,89.77
2023-04-18T09:22:48.313Z,85.61
2023-04-18T09:25:29.380Z,83.95
2023-04-18T09:28:01.415Z,79.94
2023-04-18T09:30:38.215Z,88.99
2023-04-18T09:33:07.983Z,82.55
2023-04-18T09:35:39.120Z,83.86
2023-04-18T09:38:08.322Z,88.67
2023-04-18T09:40:38.948Z,86.75
2023-04-18T09:43:21.237Z,82.37
2023-04-18T09:45:50.001Z,87.58
2023-04-18T09:48:18.640Z,89.31
2023-04-18T09:50:50.828Z,89.65
2023-04-18T09:53:21.136Z,93.88
2023-04-18T09:55:51.490Z,89.24
2023-04-18T09:58:23.095Z,90.79
2023-04-18T10:00:51.647Z,93.26
2023-04-18T10:03:21.356Z,95.98
2023-04-18T10:05:52.637Z,92.51
2023-04-18T10:08:22.225Z,92.54
2023-04-18T10:10:51.359Z,92.02
2023-04-18T10:13:20.832Z,85.84
2023-04-18T10:15:50.968Z,80.00
2023-04-18T10:18:23.576Z,76.47
2023-04-18T10:21:02.550Z,73.40
2023-04-18T10:24:00.689Z,67.12
2023-04-18T10:26:47.465Z,65.21
2023-04-18T10:29:15.838Z,64.20
2023-04-18T10:31:48.125Z,70.31
2023-04-18T10:34:19.910Z,66.81
2023-04-18T10:37:11.582Z,69.35
2023-04-18T10:39:50.376Z,64.95
2023-04-18T10:42:19.084Z,61.14
2023-04-18T10:45:05.584Z,58.29
2023-04-18T10:47:34.564Z,55.77
2023-04-18T10:50:06.826Z,60.96
2023-04-18T10:52:38.437Z,51.19
2023-04-18T10:55:12.251Z,47.72
2023-04-18T10:57:42.289Z,50.83
2023-04-18T11:00:13.706Z,57.02
2023-04-18T11:02:42.985Z,59.31
2023-04-18T11:05:12.163Z,57.93
2023-04-18T11:07:45.186Z,60.74
2023-04-18T11:10:14.495Z,59.49
2023-04-18T11:12:46.253Z,53.52
2023-04-18T11:15:17.815Z,55.60
2023-04-18T11:17:47.431Z,61.00
2023-04-18T11:20:16.389Z,61.92
2023-04-18T11:22:51.959Z,62.01
2023-04-18T11:25:22.465Z,63.71
2023-04-18T11:27:55.917Z,64.92
2023-04-18T11:30:24.604Z,51.60
2023-04-18T11:32:54.425Z,46.70
2023-04-18T11:35:22.883Z,46.60
2023-04-18T11:37:52.534Z,42.50
2023-04-18T11:40:20.961Z,44.10
2023-04-18T11:42:50.950Z,51.11
2023-04-18T11:45:19.170Z,47.49
2023-04-18T11:47:47.890Z,52.33
2023-04-18T11:50:16.416Z,54.08
2023-04-18T11:52:44.897Z,61.04
2023-04-18T11:55:17.964Z,62.14
2023-04-18T11:58:07.575Z,65.46
2023-04-18T12:00:37.367Z,67.93
2023-04-18T12:03:13.389Z,66.79
2023-04-18T12:05:43.070Z,68.51
2023-04-18T12:08:13.369Z,64.28
2023-04-18T12:10:48.665Z,62.19
2023-04-18T12:13:17.320Z,58.90
2023-04-18T12:15:47.309Z,55.64
2023-04-18T12:18:16.839Z,55.99
2023-04-18T12:20:50.523Z,55.61
2023-04-18T12:23:36.456Z,51.75
2023-04-18T12:26:07.560Z,49.48
2023-04-18T12:28:37.064Z,51.17
2023-04-18T12:31:07.946Z,56.25
2023-04-18T12:33:37.231Z,57.36
2023-04-18T12:36:09.541Z,59.32
2023-04-18T12:38:38.204Z,58.72
2023-04-18T12:41:08.449Z,61.52
2023-04-18T12:43:37.016Z,62.35
2023-04-18T12:46:05.073Z,62.44
2023-04-18T12:48:33.496Z,64.02
2023-04-18T12:51:02.293Z,63.86
2023-04-18T12:53:30.927Z,65.88
2023-04-18T12:56:01.550Z,66.46
2023-04-18T12:58:31.206Z,65.58
2023-04-18T13:00:59.946Z,61.84
2023-04-18T13:03:28.791Z,60.60
2023-04-18T13:05:57.789Z,57.04
2023-04-18T13:08:27.058Z,55.48
2023-04-18T13:10:56.385Z,53.31
2023-04-18T13:13:24.574Z,52.94
2023-04-18T13:15:54.451Z,55.55
2023-04-18T13:18:26.520Z,57.19
2023-04-18T13:20:55.045Z,58.40
2023-04-18T13:23:24.274Z,61.20
2023-04-18T13:25:56.411Z,60.93
2023-04-18T13:31:11.313Z,57.13
2023-04-18T13:33:41.293Z,56.72
2023-04-18T13:36:10.030Z,55.65
2023-04-18T13:38:41.719Z,52.74
2023-04-18T13:41:13.390Z,54.25
2023-04-18T13:43:42.341Z,54.41
2023-04-18T13:46:14.400Z,52.67
2023-04-18T13:48:58.259Z,51.18
2023-04-18T13:51:27.018Z,48.60
2023-04-18T13:53:56.310Z,47.04
2023-04-18T13:56:25.154Z,47.61
2023-04-18T13:58:56.140Z,49.95
2023-04-18T14:01:26.913Z,47.14
2023-04-18T14:04:10.097Z,40.98
2023-04-18T14:06:39.001Z,37.82
2023-04-18T14:09:11.498Z,40.91
2023-04-18T14:11:40.825Z,39.27
2023-04-18T14:14:23.210Z,42.36
2023-04-18T14:16:55.188Z,45.37
2023-04-18T14:19:28.126Z,43.03
2023-04-18T14:21:56.422Z,43.33
2023-04-18T14:24:31.985Z,40.52
2023-04-18T14:27:02.106Z,43.85
2023-04-18T14:29:31.411Z,49.21
2023-04-18T14:32:08.150Z,55.11
2023-04-18T14:34:38.208Z,56.94
2023-04-18T14:37:08.136Z,57.76
2023-04-18T14:39:38.688Z,59.64
2023-04-18T14:42:07.670Z,61.30
2023-04-18T14:44:37.212Z,62.10
2023-04-18T14:47:07.276Z,63.94
2023-04-18T14:49:36.345Z,62.77
2023-04-18T14:52:05.126Z,62.25
2023-04-18T14:54:34.402Z,61.29
2023-04-18T14:57:03.214Z,61.57
2023-04-18T14:59:32.285Z,60.75
2023-04-18T15:02:00.712Z,60.41
2023-04-18T15:04:34.231Z,61.06
2023-04-18T15:07:03.337Z,61.40
2023-04-18T15:09:31.606Z,60.39
2023-04-18T15:12:00.481Z,62.18
2023-04-18T15:14:28.365Z,64.60
2023-04-18T15:17:02.025Z,55.21
2023-04-18T15:19:39.179Z,51.87
2023-04-18T15:22:09.892Z,46.20
2023-04-18T15:24:38.210Z,46.29
2023-04-18T15:27:11.927Z,47.68
2023-04-18T15:29:40.271Z,47.19
2023-04-18T15:32:10.115Z,42.54
2023-04-18T15:34:40.095Z,42.07
2023-04-18T15:37:08.798Z,45.41
2023-04-18T15:39:37.573Z,50.65
2023-04-18T15:42:06.127Z,52.06
2023-04-18T15:44:36.904Z,55.69
2023-04-18T15:47:06.312Z,54.58
2023-04-18T15:49:34.181Z,58.25
2023-04-18T15:54:53.335Z,58.69
2023-04-18T15:57:25.328Z,59.22
2023-04-18T15:59:56.934Z,58.46
2023-04-18T16:02:48.594Z,56.55
2023-04-18T16:05:17.666Z,60.74
2023-04-18T16:07:50.302Z,61.85
2023-04-18T16:10:48.451Z,64.78
2023-04-18T16:13:21.312Z,65.33
2023-04-18T16:15:54.680Z,66.27
2023-04-18T16:18:28.568Z,65.95
2023-04-18T16:20:59.459Z,67.14
2023-04-18T16:23:32.862Z,66.17
2023-04-18T16:28:51.649Z,66.94
2023-04-18T16:31:21.103Z,66.86
2023-04-18T16:33:52.740Z,65.85
2023-04-18T16:36:23.606Z,64.43
2023-04-18T16:39:03.134Z,64.91
2023-04-18T16:44:20.740Z,66.69
2023-04-18T16:46:58.988Z,66.26
2023-04-18T16:49:28.028Z,66.06
2023-04-18T16:52:09.863Z,68.51
2023-04-18T16:54:42.164Z,68.46
2023-04-18T17:02:47.517Z,72.08
2023-04-18T17:05:20.737Z,76.53
2023-04-18T17:07:55.525Z,80.97
2023-04-18T17:10:28.139Z,84.30
2023-04-18T17:12:57.425Z,85.03
2023-04-18T17:15:28.395Z,86.24
2023-04-18T17:18:00.400Z,86.64
2023-04-18T17:20:28.914Z,89.77
2023-04-18T17:22:57.785Z,91.11
2023-04-18T17:25:34.130Z,91.37
2023-04-18T17:28:06.750Z,95.17
2023-04-18T17:30:35.236Z,94.67
2023-04-18T17:33:06.733Z,96.44
2023-04-18T17:35:37.447Z,96.53
2023-04-18T17:38:06.955Z,98.44
2023-04-18T17:40:37.203Z,100.00
2023-04-18T17:43:07.502Z,100.00
2023-04-18T17:45:38.965Z,100.00
2023-04-18T17:48:24.303Z,100.00
2023-04-18T17:50:56.094Z,98.96
2023-04-18T17:53:25.570Z,99.84
2023-04-18T17:56:04.305Z,100.00
2023-04-18T17:58:35.544Z,99.32
2023-04-18T18:01:06.340Z,100.00
2023-04-18T18:03:35.487Z,100.00
2023-04-18T18:06:05.760Z,100.00
2023-04-18T18:08:36.459Z,100.00
2023-04-18T18:11:08.939Z,100.00
2023-04-18T18:13:50.266Z,100.00
2023-04-18T18:16:21.396Z,100.00
2023-04-18T18:18:51.127Z,100.00
2023-04-18T18:21:19.890Z,100.00
2023-04-18T18:23:50.302Z,100.00
2023-04-18T18:26:26.790Z,100.00
2023-04-18T18:28:56.175Z,100.00
2023-04-18T18:31:26.016Z,100.00
2023-04-18T18:33:58.982Z,100.00
2023-04-18T18:36:28.781Z,100.00
2023-04-18T18:38:57.470Z,100.00
2023-04-18T18:41:34.330Z,100.00
2023-04-18T18:44:04.814Z,100.00
2023-04-18T18:46:38.909Z,100.00
2023-04-18T18:49:09.710Z,100.00
2023-04-18T18:54:45.589Z,100.00
2023-04-18T18:57:16.383Z,100.00
2023-04-18T18:59:44.806Z,100.00
2023-04-18T19:02:21.792Z,100.00
2023-04-18T19:04:58.088Z,100.00
2023-04-18T19:07:30.117Z,100.00
2023-04-18T19:10:01.205Z,100.00
2023-04-18T19:12:52.243Z,100.00
2023-04-18T19:18:11.325Z,100.00
2023-04-18T19:20:44.117Z,100.00
2023-04-18T19:23:17.392Z,100.00
2023-04-18T19:25:48.049Z,100.00
2023-04-18T19:28:18.986Z,100.00
2023-04-18T19:30:50.546Z,100.00
2023-04-18T19:33:24.913Z,100.00
2023-04-18T19:35:56.658Z,100.00
2023-04-18T19:41:43.477Z,100.00
2023-04-18T19:50:39.806Z,100.00
2023-04-18T19:53:09.187Z,100.00
2023-04-18T19:55:52.306Z,100.00
2023-04-18T19:58:45.339Z,100.00
2023-04-18T20:01:19.553Z,100.00
2023-04-18T20:07:38.770Z,100.00
2023-04-18T20:13:15.807Z,100.00
2023-04-18T20:15:46.936Z,100.00
2023-04-18T20:18:37.976Z,100.00
2023-04-18T20:21:12.712Z,100.00
2023-04-18T20:23:48.644Z,100.00
2023-04-18T20:29:21.795Z,100.00
2023-04-18T20:31:56.563Z,100.00
2023-04-18T20:34:40.887Z,100.00
2023-04-18T20:37:11.918Z,100.00
2023-04-18T20:39:59.160Z,100.00
2023-04-18T20:42:41.814Z,100.00
2023-04-18T20:45:22.398Z,100.00
2023-04-18T20:47:57.695Z,100.00
2023-04-18T20:50:31.954Z,100.00
2023-04-18T20:53:02.756Z,100.00
2023-04-18T20:55:36.565Z,100.00
2023-04-18T20:58:07.370Z,100.00
2023-04-18T21:00:36.873Z,100.00
2023-04-18T21:03:10.590Z,100.00
2023-04-18T21:08:39.530Z,100.00
2023-04-18T21:11:09.005Z,100.00
2023-04-18T21:13:38.647Z,100.00
2023-04-18T21:16:10.285Z,100.00
2023-04-18T21:18:38.646Z,100.00
2023-04-18T21:21:07.461Z,100.00
2023-04-18T21:23:41.833Z,100.00
2023-04-18T21:26:13.065Z,100.00
2023-04-18T21:28:54.624Z,100.00
2023-04-18T21:31:23.084Z,100.00
2023-04-18T21:33:52.870Z,100.00
2023-04-18T21:36:21.128Z,100.00
2023-04-18T21:38:49.464Z,100.00
2023-04-18T21:41:18.933Z,100.00
2023-04-18T21:43:47.218Z,100.00
2023-04-18T21:46:16.104Z,100.00
2023-04-18T21:48:45.089Z,100.00
2023-04-18T21:51:15.284Z,100.00
2023-04-18T21:53:43.698Z,100.00
2023-04-18T21:56:11.886Z,100.00
2023-04-18T21:58:42.521Z,100.00
2023-04-18T22:01:10.574Z,100.00
2023-04-18T22:03:38.690Z,100.00
2023-04-18T22:06:06.741Z,100.00
2023-04-18T22:08:34.795Z,100.00
2023-04-18T22:11:02.916Z,100.00
2023-04-18T22:13:33.089Z,100.00
2023-04-18T22:16:03.686Z,100.00
2023-04-18T22:18:33.666Z,100.00
2023-04-18T22:21:03.639Z,100.00
2023-04-18T22:23:32.200Z,100.00
2023-04-18T22:26:00.147Z,100.00
2023-04-18T22:28:29.165Z,100.00
2023-04-18T22:30:57.912Z,100.00
2023-04-18T22:33:27.739Z,100.00
2023-04-18T22:35:56.016Z,100.00
2023-04-18T22:38:24.476Z,100.00
2023-04-18T22:40:52.608Z,100.00
2023-04-18T22:43:23.797Z,100.00
2023-04-18T22:45:52.461Z,100.00
2023-04-18T22:48:20.628Z,100.00
2023-04-18T22:50:51.035Z,100.00
2023-04-18T22:53:19.083Z,100.00
2023-04-18T22:55:47.481Z,100.00
2023-04-18T22:58:16.109Z,100.00
2023-04-18T23:00:44.147Z,100.00
2023-04-18T23:03:12.486Z,100.00
2023-04-18T23:05:41.567Z,100.00
2023-04-18T23:08:12.432Z,100.00
2023-04-18T23:10:41.016Z,100.00
2023-04-18T23:13:08.790Z,100.00
2023-04-18T23:15:37.405Z,100.00
2023-04-18T23:18:05.951Z,100.00
2023-04-18T23:20:34.474Z,100.00
2023-04-18T23:23:02.790Z,100.00
2023-04-18T23:25:35.009Z,100.00
2023-04-18T23:28:03.547Z,100.00
2023-04-18T23:30:32.019Z,100.00
2023-04-18T23:33:00.371Z,100.00
2023-04-18T23:35:28.593Z,100.00
2023-04-18T23:37:57.330Z,100.00
2023-04-18T23:40:25.924Z,100.00
2023-04-18T23:42:55.870Z,100.00
2023-04-18T23:45:25.765Z,100.00
2023-04-18T23:47:54.272Z,100.00
2023-04-18T23:50:22.411Z,100.00
2023-04-18T23:52:51.065Z,100.00
2023-04-18T23:55:19.673Z,100.00
2023-04-18T23:57:48.184Z,100.00
